sensor_id;sensor_type;location;lat;lon;timestamp;pressure;altitude;pressure_sealevel;temperature;humidity
69187;BME280;56301;56.864;60.554;2023-09-19T00:01:37;98238.09;;;24.07;50.16
69187;BME280;56301;56.864;60.554;2023-09-19T00:04:00;98246.19;;;24.07;50.56
69187;BME280;56301;56.864;60.554;2023-09-19T00:06:22;98241.66;;;24.08;50.25
69187;BME280;56301;56.864;60.554;2023-09-19T00:08:45;98232.69;;;24.07;50.43
69187;BME280;56301;56.864;60.554;2023-09-19T00:11:07;98230.84;;;24.08;49.90
69187;BME280;56301;56.864;60.554;2023-09-19T00:13:30;98231.03;;;24.06;50.02
69187;BME280;56301;56.864;60.554;2023-09-19T00:15:53;98231.84;;;24.07;50.33
69187;BME280;56301;56.864;60.554;2023-09-19T00:18:15;98225.63;;;24.06;50.02
69187;BME280;56301;56.864;60.554;2023-09-19T00:20:38;98234.75;;;24.05;50.33
69187;BME280;56301;56.864;60.554;2023-09-19T00:23:01;98230.19;;;24.06;50.33
69187;BME280;56301;56.864;60.554;2023-09-19T00:25:23;98226.44;;;24.07;49.91
69187;BME280;56301;56.864;60.554;2023-09-19T00:27:46;98220.22;;;24.06;50.46
69187;BME280;56301;56.864;60.554;2023-09-19T00:30:09;98221.25;;;24.05;49.80
69187;BME280;56301;56.864;60.554;2023-09-19T00:32:31;98226.66;;;24.05;50.13
69187;BME280;56301;56.864;60.554;2023-09-19T00:34:54;98225.00;;;24.04;49.83
69187;BME280;56301;56.864;60.554;2023-09-19T00:37:16;98229.72;;;24.02;50.17
69187;BME280;56301;56.864;60.554;2023-09-19T00:39:39;98218.91;;;24.02;50.40
69187;BME280;56301;56.864;60.554;2023-09-19T00:42:01;98226.19;;;24.01;50.70
69187;BME280;56301;56.864;60.554;2023-09-19T00:44:24;98224.53;;;24.00;50.68
69187;BME280;56301;56.864;60.554;2023-09-19T00:46:46;98220.97;;;24.00;50.58
69187;BME280;56301;56.864;60.554;2023-09-19T00:49:09;98215.56;;;24.00;50.60
69187;BME280;56301;56.864;60.554;2023-09-19T00:51:32;98207.66;;;23.98;50.72
69187;BME280;56301;56.864;60.554;2023-09-19T00:53:54;98212.22;;;23.98;50.54
69187;BME280;56301;56.864;60.554;2023-09-19T00:56:16;98210.38;;;23.98;50.04
69187;BME280;56301;56.864;60.554;2023-09-19T00:58:39;98207.88;;;23.97;50.31
69187;BME280;56301;56.864;60.554;2023-09-19T01:01:02;98207.66;;;23.98;50.65
69187;BME280;56301;56.864;60.554;2023-09-19T01:03:27;98199.34;;;24.00;49.65
69187;BME280;56301;56.864;60.554;2023-09-19T01:05:49;98211.66;;;24.02;49.99
69187;BME280;56301;56.864;60.554;2023-09-19T01:08:12;98214.34;;;24.02;50.08
69187;BME280;56301;56.864;60.554;2023-09-19T01:10:34;98205.63;;;24.00;49.46
69187;BME280;56301;56.864;60.554;2023-09-19T01:30:22;98222.22;;;23.97;49.60
69187;BME280;56301;56.864;60.554;2023-09-19T01:32:46;98220.34;;;23.98;49.81
69187;BME280;56301;56.864;60.554;2023-09-19T01:35:09;98221.63;;;24.02;50.54
69187;BME280;56301;56.864;60.554;2023-09-19T01:37:32;98223.13;;;24.05;50.95
69187;BME280;56301;56.864;60.554;2023-09-19T01:40:04;98230.19;;;24.06;50.98
69187;BME280;56301;56.864;60.554;2023-09-19T01:45:13;98230.84;;;24.08;50.78
69187;BME280;56301;56.864;60.554;2023-09-19T01:47:34;98237.09;;;24.08;50.36
69187;BME280;56301;56.864;60.554;2023-09-19T01:50:07;98233.34;;;24.09;50.39
69187;BME280;56301;56.864;60.554;2023-09-19T01:52:36;98240.63;;;24.09;50.24
69187;BME280;56301;56.864;60.554;2023-09-19T01:55:02;98246.84;;;24.09;50.20
69187;BME280;56301;56.864;60.554;2023-09-19T01:57:31;98235.22;;;24.09;50.21
69187;BME280;56301;56.864;60.554;2023-09-19T02:00:05;98240.63;;;24.09;49.94
69187;BME280;56301;56.864;60.554;2023-09-19T02:02:39;98236.03;;;24.09;50.25
69187;BME280;56301;56.864;60.554;2023-09-19T02:05:03;98228.97;;;24.08;49.84
69187;BME280;56301;56.864;60.554;2023-09-19T02:07:25;98242.50;;;24.08;50.46
69187;BME280;56301;56.864;60.554;2023-09-19T02:09:48;98244.16;;;24.09;50.42
69187;BME280;56301;56.864;60.554;2023-09-19T02:12:11;98245.19;;;24.08;49.92
69187;BME280;56301;56.864;60.554;2023-09-19T02:14:33;98253.09;;;24.10;50.56
69187;BME280;56301;56.864;60.554;2023-09-19T02:16:56;98247.69;;;24.10;50.38
69187;BME280;56301;56.864;60.554;2023-09-19T02:19:18;98252.47;;;24.08;51.64
69187;BME280;56301;56.864;60.554;2023-09-19T02:21:40;98244.41;;;24.14;49.71
69187;BME280;56301;56.864;60.554;2023-09-19T02:24:03;98247.09;;;24.14;49.71
69187;BME280;56301;56.864;60.554;2023-09-19T02:26:25;98241.91;;;24.13;50.05
69187;BME280;56301;56.864;60.554;2023-09-19T02:28:48;98251.03;;;24.12;50.23
69187;BME280;56301;56.864;60.554;2023-09-19T02:31:10;98247.50;;;24.11;50.86
69187;BME280;56301;56.864;60.554;2023-09-19T02:33:33;98253.09;;;24.10;50.92
69187;BME280;56301;56.864;60.554;2023-09-19T02:35:56;98260.38;;;24.09;50.51
69187;BME280;56301;56.864;60.554;2023-09-19T02:38:18;98259.31;;;24.10;50.19
69187;BME280;56301;56.864;60.554;2023-09-19T02:40:41;98262.25;;;24.09;50.83
69187;BME280;56301;56.864;60.554;2023-09-19T02:43:03;98252.25;;;24.09;50.72
69187;BME280;56301;56.864;60.554;2023-09-19T02:45:26;98262.03;;;24.10;50.23
69187;BME280;56301;56.864;60.554;2023-09-19T02:47:48;98265.78;;;24.09;50.49
69187;BME280;56301;56.864;60.554;2023-09-19T02:50:11;98256.84;;;24.09;50.26
69187;BME280;56301;56.864;60.554;2023-09-19T02:52:34;98258.69;;;24.08;50.27
69187;BME280;56301;56.864;60.554;2023-09-19T02:54:57;98260.38;;;24.09;50.01
69187;BME280;56301;56.864;60.554;2023-09-19T02:57:19;98266.81;;;24.08;50.71
69187;BME280;56301;56.864;60.554;2023-09-19T02:59:42;98263.28;;;24.08;49.91
69187;BME280;56301;56.864;60.554;2023-09-19T03:02:04;98263.06;;;24.09;50.42
69187;BME280;56301;56.864;60.554;2023-09-19T03:04:27;98266.59;;;24.10;50.53
69187;BME280;56301;56.864;60.554;2023-09-19T03:06:50;98264.94;;;24.09;50.22
69187;BME280;56301;56.864;60.554;2023-09-19T03:09:12;98259.31;;;24.10;50.23
69187;BME280;56301;56.864;60.554;2023-09-19T03:11:35;98263.06;;;24.09;49.74
69187;BME280;56301;56.864;60.554;2023-09-19T03:13:58;98264.94;;;24.09;49.96
69187;BME280;56301;56.864;60.554;2023-09-19T03:16:20;98257.66;;;24.09;50.25
69187;BME280;56301;56.864;60.554;2023-09-19T03:18:43;98258.50;;;24.10;50.18
69187;BME280;56301;56.864;60.554;2023-09-19T03:21:06;98259.53;;;24.09;50.42
69187;BME280;56301;56.864;60.554;2023-09-19T03:23:28;98263.06;;;24.09;50.85
69187;BME280;56301;56.864;60.554;2023-09-19T03:25:52;98263.91;;;24.10;50.43
69187;BME280;56301;56.864;60.554;2023-09-19T03:28:14;98261.19;;;24.10;49.85
69187;BME280;56301;56.864;60.554;2023-09-19T03:30:37;98264.72;;;24.10;50.35
69187;BME280;56301;56.864;60.554;2023-09-19T03:33:02;98263.72;;;24.11;50.18
69187;BME280;56301;56.864;60.554;2023-09-19T03:35:26;98262.69;;;24.12;49.38
69187;BME280;56301;56.864;60.554;2023-09-19T03:37:48;98266.03;;;24.14;49.98
69187;BME280;56301;56.864;60.554;2023-09-19T03:40:11;98267.34;;;24.18;50.21
69187;BME280;56301;56.864;60.554;2023-09-19T03:42:34;98261.72;;;24.20;49.99
69187;BME280;56301;56.864;60.554;2023-09-19T03:44:57;98265.91;;;24.01;51.03
69187;BME280;56301;56.864;60.554;2023-09-19T03:47:19;98270.38;;;23.94;51.29
69187;BME280;56301;56.864;60.554;2023-09-19T03:49:42;98271.81;;;23.90;50.93
69187;BME280;56301;56.864;60.554;2023-09-19T03:52:05;98265.38;;;23.91;50.80
69187;BME280;56301;56.864;60.554;2023-09-19T03:54:27;98266.44;;;23.96;50.16
69187;BME280;56301;56.864;60.554;2023-09-19T03:56:50;98268.66;;;23.86;51.50
69187;BME280;56301;56.864;60.554;2023-09-19T03:59:12;98269.47;;;23.87;51.23
69187;BME280;56301;56.864;60.554;2023-09-19T04:01:35;98279.00;;;23.83;50.99
69187;BME280;56301;56.864;60.554;2023-09-19T04:03:57;98274.59;;;23.82;50.84
69187;BME280;56301;56.864;60.554;2023-09-19T04:06:20;98272.94;;;23.81;50.55
69187;BME280;56301;56.864;60.554;2023-09-19T04:08:42;98284.78;;;23.80;50.30
69187;BME280;56301;56.864;60.554;2023-09-19T04:11:05;98279.53;;;23.78;50.97
69187;BME280;56301;56.864;60.554;2023-09-19T04:13:27;98283.09;;;23.78;50.86
69187;BME280;56301;56.864;60.554;2023-09-19T04:15:50;98279.75;;;23.76;50.26
69187;BME280;56301;56.864;60.554;2023-09-19T04:18:12;98285.16;;;23.76;50.86
69187;BME280;56301;56.864;60.554;2023-09-19T04:20:34;98281.78;;;23.74;50.35
69187;BME280;56301;56.864;60.554;2023-09-19T04:22:57;98283.66;;;23.74;50.53
69187;BME280;56301;56.864;60.554;2023-09-19T04:25:19;98284.69;;;23.73;50.62
69187;BME280;56301;56.864;60.554;2023-09-19T04:27:42;98283.84;;;23.72;50.69
69187;BME280;56301;56.864;60.554;2023-09-19T04:30:06;98292.78;;;23.73;50.36
69187;BME280;56301;56.864;60.554;2023-09-19T04:32:29;98287.59;;;23.71;50.27
69187;BME280;56301;56.864;60.554;2023-09-19T04:34:51;98288.41;;;23.72;50.46
69187;BME280;56301;56.864;60.554;2023-09-19T04:37:14;98289.44;;;23.71;49.93
69187;BME280;56301;56.864;60.554;2023-09-19T04:39:36;98292.13;;;23.71;50.16
69187;BME280;56301;56.864;60.554;2023-09-19T04:41:59;98291.28;;;23.70;50.26
69187;BME280;56301;56.864;60.554;2023-09-19T04:44:21;98295.84;;;23.70;50.02
69187;BME280;56301;56.864;60.554;2023-09-19T04:46:44;98295.03;;;23.69;49.63
69187;BME280;56301;56.864;60.554;2023-09-19T04:49:06;98297.72;;;23.69;50.25
69187;BME280;56301;56.864;60.554;2023-09-19T04:51:29;98287.13;;;23.68;49.91
69187;BME280;56301;56.864;60.554;2023-09-19T04:53:51;98281.31;;;23.71;50.07
69187;BME280;56301;56.864;60.554;2023-09-19T04:56:14;98279.06;;;23.74;49.75
69187;BME280;56301;56.864;60.554;2023-09-19T04:58:36;98277.03;;;23.76;50.09
69187;BME280;56301;56.864;60.554;2023-09-19T05:00:59;98284.78;;;23.80;49.48
69187;BME280;56301;56.864;60.554;2023-09-19T05:03:21;98279.75;;;23.76;49.48
69187;BME280;56301;56.864;60.554;2023-09-19T05:05:44;98285.97;;;23.77;50.01
69187;BME280;56301;56.864;60.554;2023-09-19T05:08:06;98273.31;;;23.77;49.73
69187;BME280;56301;56.864;60.554;2023-09-19T05:10:29;98276.00;;;23.77;50.03
69187;BME280;56301;56.864;60.554;2023-09-19T05:12:54;98275.63;;;23.81;50.12
69187;BME280;56301;56.864;60.554;2023-09-19T05:15:17;98276.66;;;23.80;49.61
69187;BME280;56301;56.864;60.554;2023-09-19T05:17:39;98282.69;;;23.82;49.51
69187;BME280;56301;56.864;60.554;2023-09-19T05:20:02;98279.81;;;23.83;49.50
69187;BME280;56301;56.864;60.554;2023-09-19T05:22:28;98272.94;;;23.81;49.45
69187;BME280;56301;56.864;60.554;2023-09-19T05:24:51;98276.66;;;23.80;49.28
69187;BME280;56301;56.864;60.554;2023-09-19T05:27:14;98281.88;;;23.81;48.85
69187;BME280;56301;56.864;60.554;2023-09-19T05:29:36;98277.28;;;23.82;49.22
69187;BME280;56301;56.864;60.554;2023-09-19T05:31:59;98271.06;;;23.81;48.95
69187;BME280;56301;56.864;60.554;2023-09-19T05:34:21;98283.72;;;23.81;48.87
69187;BME280;56301;56.864;60.554;2023-09-19T05:36:44;98274.78;;;23.80;48.96
69187;BME280;56301;56.864;60.554;2023-09-19T05:39:06;98281.22;;;23.79;49.33
69187;BME280;56301;56.864;60.554;2023-09-19T05:41:29;98279.75;;;23.76;49.27
69187;BME280;56301;56.864;60.554;2023-09-19T05:43:51;98284.31;;;23.76;49.14
69187;BME280;56301;56.864;60.554;2023-09-19T05:46:14;98282.25;;;23.78;48.70
69187;BME280;56301;56.864;60.554;2023-09-19T05:48:36;98278.91;;;23.76;49.15
69187;BME280;56301;56.864;60.554;2023-09-19T05:50:59;98282.44;;;23.76;49.40
69187;BME280;56301;56.864;60.554;2023-09-19T05:53:21;98285.16;;;23.76;49.68
69187;BME280;56301;56.864;60.554;2023-09-19T05:55:44;98270.97;;;23.74;49.41
69187;BME280;56301;56.864;60.554;2023-09-19T05:58:06;98272.00;;;23.73;49.49
69187;BME280;56301;56.864;60.554;2023-09-19T06:00:29;98278.06;;;23.75;49.27
69187;BME280;56301;56.864;60.554;2023-09-19T06:02:54;98285.97;;;23.77;49.12
69187;BME280;56301;56.864;60.554;2023-09-19T06:05:17;98281.41;;;23.77;48.89
69187;BME280;56301;56.864;60.554;2023-09-19T06:07:39;98281.41;;;23.77;48.75
69187;BME280;56301;56.864;60.554;2023-09-19T06:10:03;98285.81;;;23.78;48.66
69187;BME280;56301;56.864;60.554;2023-09-19T06:12:25;98281.41;;;23.77;48.35
69187;BME280;56301;56.864;60.554;2023-09-19T06:14:48;98283.28;;;23.77;48.94
69187;BME280;56301;56.864;60.554;2023-09-19T06:17:10;98288.88;;;23.75;49.55
69187;BME280;56301;56.864;60.554;2023-09-19T06:19:33;98285.97;;;23.77;49.49
69187;BME280;56301;56.864;60.554;2023-09-19T06:21:55;98286.81;;;23.77;49.16
69187;BME280;56301;56.864;60.554;2023-09-19T06:24:17;98288.50;;;23.78;48.55
69187;BME280;56301;56.864;60.554;2023-09-19T06:26:40;98296.63;;;23.78;48.13
69187;BME280;56301;56.864;60.554;2023-09-19T06:29:04;98296.78;;;23.77;48.25
69187;BME280;56301;56.864;60.554;2023-09-19T06:31:26;98303.84;;;23.78;47.40
69187;BME280;56301;56.864;60.554;2023-09-19T06:33:49;98297.63;;;23.77;47.67
69187;BME280;56301;56.864;60.554;2023-09-19T06:36:11;98304.72;;;23.78;47.82
69187;BME280;56301;56.864;60.554;2023-09-19T06:38:34;98304.72;;;23.78;48.15
69187;BME280;56301;56.864;60.554;2023-09-19T06:40:56;98305.56;;;23.79;47.94
69187;BME280;56301;56.864;60.554;2023-09-19T06:43:20;98309.91;;;23.80;47.88
69187;BME280;56301;56.864;60.554;2023-09-19T06:45:43;98307.22;;;23.80;47.70
69187;BME280;56301;56.864;60.554;2023-09-19T06:48:05;98317.19;;;23.80;47.75
69187;BME280;56301;56.864;60.554;2023-09-19T06:50:28;98305.34;;;23.81;48.50
69187;BME280;56301;56.864;60.554;2023-09-19T06:52:51;98318.84;;;23.81;48.67
69187;BME280;56301;56.864;60.554;2023-09-19T06:55:13;98316.16;;;23.81;48.45
69187;BME280;56301;56.864;60.554;2023-09-19T06:57:36;98323.44;;;23.80;48.62
69187;BME280;56301;56.864;60.554;2023-09-19T06:59:59;98320.06;;;23.78;48.62
69187;BME280;56301;56.864;60.554;2023-09-19T07:02:21;98319.88;;;23.80;48.68
69187;BME280;56301;56.864;60.554;2023-09-19T07:04:44;98328.00;;;23.80;48.27
69187;BME280;56301;56.864;60.554;2023-09-19T07:07:06;98322.59;;;23.80;48.39
69187;BME280;56301;56.864;60.554;2023-09-19T07:09:29;98328.00;;;23.80;48.51
69187;BME280;56301;56.864;60.554;2023-09-19T07:11:52;98329.19;;;23.77;48.03
69187;BME280;56301;56.864;60.554;2023-09-19T07:14:14;98326.31;;;23.78;47.62
69187;BME280;56301;56.864;60.554;2023-09-19T07:16:37;98322.75;;;23.78;47.91
69187;BME280;56301;56.864;60.554;2023-09-19T07:18:59;98328.16;;;23.78;47.67
69187;BME280;56301;56.864;60.554;2023-09-19T07:21:22;98333.78;;;23.76;48.27
69187;BME280;56301;56.864;60.554;2023-09-19T07:23:44;98337.31;;;23.77;47.42
69187;BME280;56301;56.864;60.554;2023-09-19T07:26:07;98324.16;;;23.74;47.58
69187;BME280;56301;56.864;60.554;2023-09-19T07:28:30;98328.38;;;23.76;47.92
69187;BME280;56301;56.864;60.554;2023-09-19T07:30:52;98330.41;;;23.74;47.76
69187;BME280;56301;56.864;60.554;2023-09-19T07:33:14;98327.91;;;23.73;47.63
69187;BME280;56301;56.864;60.554;2023-09-19T07:35:37;98325.00;;;23.74;47.76
69187;BME280;56301;56.864;60.554;2023-09-19T07:38:00;98325.00;;;23.74;47.43
69187;BME280;56301;56.864;60.554;2023-09-19T07:40:22;98325.00;;;23.74;47.84
69187;BME280;56301;56.864;60.554;2023-09-19T07:42:44;98320.47;;;23.75;47.46
69187;BME280;56301;56.864;60.554;2023-09-19T07:45:07;98317.56;;;23.76;47.41
69187;BME280;56301;56.864;60.554;2023-09-19T07:47:30;98319.44;;;23.76;46.95
69187;BME280;56301;56.864;60.554;2023-09-19T07:49:53;98323.16;;;23.75;47.54
69187;BME280;56301;56.864;60.554;2023-09-19T07:52:15;98322.69;;;23.71;47.80
69187;BME280;56301;56.864;60.554;2023-09-19T07:54:38;98320.00;;;23.71;48.14
69187;BME280;56301;56.864;60.554;2023-09-19T07:57:03;98321.66;;;23.72;47.74
69187;BME280;56301;56.864;60.554;2023-09-19T07:59:26;98329.31;;;23.69;47.86
69187;BME280;56301;56.864;60.554;2023-09-19T08:01:48;98334.03;;;23.67;47.95
69187;BME280;56301;56.864;60.554;2023-09-19T08:04:11;98334.88;;;23.67;48.12
69187;BME280;56301;56.864;60.554;2023-09-19T08:06:33;98335.75;;;23.68;47.67
69187;BME280;56301;56.864;60.554;2023-09-19T08:08:56;98338.94;;;23.63;48.44
69187;BME280;56301;56.864;60.554;2023-09-19T08:11:18;98341.00;;;23.61;47.92
69187;BME280;56301;56.864;60.554;2023-09-19T08:13:41;98339.97;;;23.62;48.38
69187;BME280;56301;56.864;60.554;2023-09-19T08:16:04;98350.13;;;23.60;47.58
69187;BME280;56301;56.864;60.554;2023-09-19T08:18:26;98358.22;;;23.60;47.47
69187;BME280;56301;56.864;60.554;2023-09-19T08:20:49;98348.44;;;23.59;47.69
69187;BME280;56301;56.864;60.554;2023-09-19T08:23:12;98363.00;;;23.58;47.75
69187;BME280;56301;56.864;60.554;2023-09-19T08:25:34;98355.72;;;23.59;48.08
69187;BME280;56301;56.864;60.554;2023-09-19T08:27:57;98350.53;;;23.57;48.15
69187;BME280;56301;56.864;60.554;2023-09-19T08:30:20;98358.41;;;23.59;48.00
69187;BME280;56301;56.864;60.554;2023-09-19T08:32:42;98356.56;;;23.59;48.10
69187;BME280;56301;56.864;60.554;2023-09-19T08:35:05;98360.28;;;23.58;48.01
69187;BME280;56301;56.864;60.554;2023-09-19T08:37:28;98363.63;;;23.60;47.46
69187;BME280;56301;56.864;60.554;2023-09-19T08:39:50;98368.38;;;23.58;47.63
69187;BME280;56301;56.864;60.554;2023-09-19T08:42:13;98372.97;;;23.58;47.46
69187;BME280;56301;56.864;60.554;2023-09-19T08:44:36;98372.13;;;23.57;47.21
69187;BME280;56301;56.864;60.554;2023-09-19T08:47:09;98372.13;;;23.57;47.40
69187;BME280;56301;56.864;60.554;2023-09-19T08:49:53;98375.81;;;23.56;47.82
69187;BME280;56301;56.864;60.554;2023-09-19T08:52:22;98375.00;;;23.55;47.91
69187;BME280;56301;56.864;60.554;2023-09-19T08:54:47;98369.59;;;23.55;47.70
69187;BME280;56301;56.864;60.554;2023-09-19T08:57:11;98372.13;;;23.57;47.53
69187;BME280;56301;56.864;60.554;2023-09-19T08:59:33;98374.06;;;23.63;47.31
69187;BME280;56301;56.864;60.554;2023-09-19T09:01:57;98383.00;;;23.64;48.08
69187;BME280;56301;56.864;60.554;2023-09-19T09:04:20;98383.00;;;23.64;47.18
69187;BME280;56301;56.864;60.554;2023-09-19T09:06:44;98381.16;;;23.64;47.42
69187;BME280;56301;56.864;60.554;2023-09-19T09:09:07;98390.25;;;23.63;47.52
69187;BME280;56301;56.864;60.554;2023-09-19T09:11:30;98385.91;;;23.62;47.27
69187;BME280;56301;56.864;60.554;2023-09-19T09:13:55;98391.50;;;23.61;47.47
69187;BME280;56301;56.864;60.554;2023-09-19T09:16:17;98388.97;;;23.59;47.32
69187;BME280;56301;56.864;60.554;2023-09-19T09:18:40;98388.31;;;23.57;47.64
69187;BME280;56301;56.864;60.554;2023-09-19T09:21:02;98391.19;;;23.55;47.66
69187;BME280;56301;56.864;60.554;2023-09-19T09:23:26;98389.53;;;23.54;47.42
69187;BME280;56301;56.864;60.554;2023-09-19T09:28:18;98387.84;;;23.53;47.30
69187;BME280;56301;56.864;60.554;2023-09-19T09:30:41;98388.84;;;23.52;47.23
69187;BME280;56301;56.864;60.554;2023-09-19T09:33:13;98396.59;;;23.55;47.65
69187;BME280;56301;56.864;60.554;2023-09-19T09:35:36;98393.72;;;23.57;46.95
69187;BME280;56301;56.864;60.554;2023-09-19T09:38:01;98397.53;;;23.63;46.80
69187;BME280;56301;56.864;60.554;2023-09-19T09:40:24;98390.22;;;23.71;46.21
69187;BME280;56301;56.864;60.554;2023-09-19T09:42:50;98387.06;;;23.83;46.34
69187;BME280;56301;56.864;60.554;2023-09-19T09:47:42;98393.38;;;23.90;46.16
69187;BME280;56301;56.864;60.554;2023-09-19T09:50:04;98387.31;;;23.88;46.76
69187;BME280;56301;56.864;60.554;2023-09-19T09:52:27;98390.59;;;23.98;46.16
69187;BME280;56301;56.864;60.554;2023-09-19T09:54:59;98390.84;;;24.03;46.63
69187;BME280;56301;56.864;60.554;2023-09-19T09:57:22;98391.31;;;24.07;46.73
69187;BME280;56301;56.864;60.554;2023-09-19T09:59:48;98397.09;;;24.03;46.93
69187;BME280;56301;56.864;60.554;2023-09-19T10:02:12;98403.91;;;23.99;47.07
69187;BME280;56301;56.864;60.554;2023-09-19T10:04:34;98396.34;;;23.95;47.28
69187;BME280;56301;56.864;60.554;2023-09-19T10:06:57;98396.56;;;23.93;46.14
69187;BME280;56301;56.864;60.554;2023-09-19T10:09:19;98387.22;;;23.96;46.13
69187;BME280;56301;56.864;60.554;2023-09-19T10:11:45;98387.13;;;24.04;45.93
69187;BME280;56301;56.864;60.554;2023-09-19T10:14:08;98386.19;;;24.12;46.37
69187;BME280;56301;56.864;60.554;2023-09-19T10:16:31;98395.75;;;24.14;46.21
69187;BME280;56301;56.864;60.554;2023-09-19T10:18:54;98393.53;;;24.18;46.48
69187;BME280;56301;56.864;60.554;2023-09-19T10:21:18;98396.50;;;24.23;46.51
69187;BME280;56301;56.864;60.554;2023-09-19T10:23:41;98403.38;;;24.25;46.41
69187;BME280;56301;56.864;60.554;2023-09-19T10:26:04;98401.34;;;24.27;46.17
69187;BME280;56301;56.864;60.554;2023-09-19T10:28:27;98391.19;;;24.30;46.07
69187;BME280;56301;56.864;60.554;2023-09-19T10:30:51;98391.81;;;24.32;45.79
69187;BME280;56301;56.864;60.554;2023-09-19T10:33:14;98394.66;;;24.23;46.07
69187;BME280;56301;56.864;60.554;2023-09-19T10:35:41;98401.09;;;24.22;45.74
69187;BME280;56301;56.864;60.554;2023-09-19T10:38:04;98396.88;;;24.20;45.47
69187;BME280;56301;56.864;60.554;2023-09-19T10:40:28;98397.47;;;24.15;45.75
69187;BME280;56301;56.864;60.554;2023-09-19T10:42:50;98395.75;;;24.14;46.14
69187;BME280;56301;56.864;60.554;2023-09-19T10:45:13;98401.56;;;24.11;45.34
69187;BME280;56301;56.864;60.554;2023-09-19T10:47:37;98394.47;;;24.10;45.61
69187;BME280;56301;56.864;60.554;2023-09-19T10:50:00;98390.09;;;24.09;44.77
69187;BME280;56301;56.864;60.554;2023-09-19T10:52:23;98394.66;;;24.09;45.15
69187;BME280;56301;56.864;60.554;2023-09-19T10:54:51;98399.41;;;24.07;44.71
69187;BME280;56301;56.864;60.554;2023-09-19T10:57:18;98396.91;;;24.05;44.83
69187;BME280;56301;56.864;60.554;2023-09-19T10:59:47;98398.31;;;24.01;45.59
69187;BME280;56301;56.864;60.554;2023-09-19T11:02:22;98394.78;;;24.00;45.84
69187;BME280;56301;56.864;60.554;2023-09-19T11:04:45;98404.72;;;24.00;45.90
69187;BME280;56301;56.864;60.554;2023-09-19T11:07:13;98406.78;;;23.98;45.65
69187;BME280;56301;56.864;60.554;2023-09-19T11:09:49;98405.13;;;23.97;45.52
69187;BME280;56301;56.864;60.554;2023-09-19T11:12:12;98402.44;;;23.97;45.11
69187;BME280;56301;56.864;60.554;2023-09-19T11:14:54;98414.25;;;23.96;44.86
69187;BME280;56301;56.864;60.554;2023-09-19T11:22:23;98418.34;;;23.92;45.23
69187;BME280;56301;56.864;60.554;2023-09-19T11:24:46;98415.63;;;23.92;45.39
69187;BME280;56301;56.864;60.554;2023-09-19T11:27:12;98419.38;;;23.91;45.27
69187;BME280;56301;56.864;60.554;2023-09-19T11:29:35;98425.63;;;23.91;45.29
69187;BME280;56301;56.864;60.554;2023-09-19T11:31:58;98416.69;;;23.91;44.98
69187;BME280;56301;56.864;60.554;2023-09-19T11:34:39;98415.63;;;23.92;45.49
69187;BME280;56301;56.864;60.554;2023-09-19T11:45:07;98411.91;;;23.93;44.97
69187;BME280;56301;56.864;60.554;2023-09-19T11:47:29;98407.53;;;23.92;45.62
69187;BME280;56301;56.864;60.554;2023-09-19T11:49:52;98411.06;;;23.92;45.16
69187;BME280;56301;56.864;60.554;2023-09-19T11:52:20;98406.22;;;23.88;45.50
69187;BME280;56301;56.864;60.554;2023-09-19T11:54:43;98405.03;;;23.90;45.07
69187;BME280;56301;56.864;60.554;2023-09-19T11:57:06;98412.31;;;23.90;45.13
69187;BME280;56301;56.864;60.554;2023-09-19T11:59:30;98416.22;;;23.87;45.40
69187;BME280;56301;56.864;60.554;2023-09-19T12:02:05;98404.72;;;23.85;45.61
69187;BME280;56301;56.864;60.554;2023-09-19T12:04:38;98409.50;;;23.83;45.46
69187;BME280;56301;56.864;60.554;2023-09-19T12:07:01;98411.38;;;23.83;45.58
69187;BME280;56301;56.864;60.554;2023-09-19T12:09:23;98414.25;;;23.81;45.68
69187;BME280;56301;56.864;60.554;2023-09-19T12:11:46;98412.56;;;23.80;45.88
69187;BME280;56301;56.864;60.554;2023-09-19T12:14:09;98415.47;;;23.78;45.52
69187;BME280;56301;56.864;60.554;2023-09-19T12:16:31;98409.22;;;23.78;45.84
69187;BME280;56301;56.864;60.554;2023-09-19T12:18:54;98411.06;;;23.77;45.57
69187;BME280;56301;56.864;60.554;2023-09-19T12:21:26;98420.22;;;23.76;45.88
69187;BME280;56301;56.864;60.554;2023-09-19T12:26:27;98418.53;;;23.75;47.42
69187;BME280;56301;56.864;60.554;2023-09-19T12:28:49;98426.09;;;23.80;46.40
69187;BME280;56301;56.864;60.554;2023-09-19T12:31:12;98421.88;;;23.77;46.38
69187;BME280;56301;56.864;60.554;2023-09-19T12:33:34;98412.09;;;23.76;45.84
69187;BME280;56301;56.864;60.554;2023-09-19T12:35:57;98422.44;;;23.73;46.62
69187;BME280;56301;56.864;60.554;2023-09-19T12:38:25;98428.03;;;23.71;46.11
69187;BME280;56301;56.864;60.554;2023-09-19T12:40:48;98419.06;;;23.71;46.02
69187;BME280;56301;56.864;60.554;2023-09-19T12:43:11;98424.69;;;23.69;46.39
69187;BME280;56301;56.864;60.554;2023-09-19T12:45:34;98427.38;;;23.69;46.29
69187;BME280;56301;56.864;60.554;2023-09-19T12:50:58;98443.59;;;23.69;45.42
69187;BME280;56301;56.864;60.554;2023-09-19T12:53:26;98440.38;;;23.66;45.30
69187;BME280;56301;56.864;60.554;2023-09-19T12:55:50;98447.31;;;23.68;45.83
69187;BME280;56301;56.864;60.554;2023-09-19T12:58:20;98446.63;;;23.66;45.25
69187;BME280;56301;56.864;60.554;2023-09-19T13:00:43;98452.38;;;23.63;45.84
69187;BME280;56301;56.864;60.554;2023-09-19T13:03:19;98454.09;;;23.64;46.03
69187;BME280;56301;56.864;60.554;2023-09-19T13:08:24;98462.34;;;23.63;46.46
69187;BME280;56301;56.864;60.554;2023-09-19T13:13:27;98465.25;;;23.61;46.23
69187;BME280;56301;56.864;60.554;2023-09-19T13:15:53;98442.97;;;23.59;45.88
69187;BME280;56301;56.864;60.554;2023-09-19T13:18:16;98453.97;;;23.58;45.57
69187;BME280;56301;56.864;60.554;2023-09-19T13:20:38;98458.72;;;23.55;45.92